createdAt,value
2023-05-13T00:00:52.844Z,17.42
2023-05-13T00:03:26.744Z,17.47
2023-05-13T00:06:01.304Z,17.48
2023-05-13T00:08:35.542Z,17.44
2023-05-13T00:11:10.161Z,17.38
2023-05-13T00:13:38.490Z,17.34
2023-05-13T00:16:13.639Z,17.39
2023-05-13T00:18:41.339Z,17.49
2023-05-13T00:21:16.711Z,17.56
2023-05-13T00:23:50.044Z,17.59
2023-05-13T00:26:23.599Z,17.57
2023-05-13T00:28:50.979Z,17.52
2023-05-13T00:31:23.611Z,17.50
2023-05-13T00:33:57.789Z,17.52
2023-05-13T00:36:30.314Z,17.49
2023-05-13T00:38:54.476Z,17.50
2023-05-13T00:41:28.841Z,17.50
2023-05-13T00:44:03.109Z,17.42
2023-05-13T00:46:38.975Z,17.29
2023-05-13T00:49:17.481Z,17.24
2023-05-13T00:51:51.693Z,17.21
2023-05-13T00:54:25.650Z,17.14
2023-05-13T00:57:00.628Z,17.13
2023-05-13T00:59:35.415Z,17.19
2023-05-13T01:02:16.796Z,17.18
2023-05-13T01:04:54.166Z,17.13
2023-05-13T01:07:44.608Z,17.15
2023-05-13T01:10:19.458Z,17.10
2023-05-13T01:12:57.182Z,17.05
2023-05-13T01:15:32.508Z,17.04
2023-05-13T01:18:36.133Z,17.05
2023-05-13T01:21:07.275Z,17.04
2023-05-13T01:23:33.656Z,17.05
2023-05-13T01:26:02.563Z,17.05
2023-05-13T01:28:32.002Z,16.97
2023-05-13T01:31:06.218Z,16.88
2023-05-13T01:33:28.626Z,16.89
2023-05-13T01:36:03.849Z,16.84
2023-05-13T01:38:31.277Z,16.76
2023-05-13T01:40:50.354Z,16.72
2023-05-13T01:43:24.056Z,16.69
2023-05-13T01:46:01.532Z,16.76
2023-05-13T01:48:35.623Z,16.78
2023-05-13T01:51:10.057Z,16.83
2023-05-13T01:53:42.467Z,16.90
2023-05-13T01:56:17.700Z,16.98
2023-05-13T01:58:45.076Z,17.08
2023-05-13T02:01:08.242Z,17.11
2023-05-13T02:03:31.357Z,17.15
2023-05-13T02:06:05.641Z,17.29
2023-05-13T02:08:33.949Z,17.43
2023-05-13T02:11:08.173Z,17.53
2023-05-13T02:13:34.526Z,17.61
2023-05-13T02:16:06.565Z,17.69
2023-05-13T02:18:35.018Z,17.74
2023-05-13T02:21:01.623Z,17.79
2023-05-13T02:23:29.571Z,17.82
2023-05-13T02:25:49.570Z,17.83
2023-05-13T02:28:16.270Z,17.83
2023-05-13T02:30:43.048Z,17.76
2023-05-13T02:33:16.369Z,17.67
2023-05-13T02:35:51.005Z,17.58
2023-05-13T02:38:12.574Z,17.44
2023-05-13T02:40:32.431Z,17.28
2023-05-13T02:42:57.644Z,17.14
2023-05-13T02:45:22.701Z,17.00
2023-05-13T02:47:50.247Z,16.84
2023-05-13T02:50:18.565Z,16.79
2023-05-13T02:52:45.730Z,16.78
2023-05-13T02:55:19.501Z,16.76
2023-05-13T02:57:43.189Z,16.75
2023-05-13T03:00:12.183Z,16.77
2023-05-13T03:02:44.870Z,16.81
2023-05-13T03:05:13.118Z,16.87
2023-05-13T03:07:37.012Z,16.92
2023-05-13T03:09:56.943Z,16.91
2023-05-13T03:12:22.934Z,16.87
2023-05-13T03:15:00.553Z,16.83
2023-05-13T03:17:36.017Z,16.80
2023-05-13T03:19:53.386Z,16.77
2023-05-13T03:22:13.469Z,16.73
2023-05-13T03:24:33.230Z,16.64
2023-05-13T03:27:01.280Z,16.54
2023-05-13T03:29:34.912Z,16.45
2023-05-13T03:32:10.359Z,16.38
2023-05-13T03:34:30.003Z,16.33
2023-05-13T03:37:06.857Z,16.29
2023-05-13T03:39:30.252Z,16.23
2023-05-13T03:42:04.245Z,16.18
2023-05-13T03:44:31.758Z,16.12
2023-05-13T03:47:05.948Z,16.06
2023-05-13T03:49:42.135Z,15.97
2023-05-13T03:52:16.329Z,15.90
2023-05-13T03:54:47.962Z,15.84
2023-05-13T03:57:17.407Z,15.77
2023-05-13T04:00:03.179Z,15.68
2023-05-13T04:02:34.455Z,15.55
2023-05-13T04:04:54.983Z,15.46
2023-05-13T04:07:31.506Z,15.40
2023-05-13T04:09:56.198Z,15.37
2023-05-13T04:12:34.644Z,15.35
2023-05-13T04:15:29.765Z,15.32
2023-05-13T04:17:49.547Z,15.29
2023-05-13T04:20:18.058Z,15.25
2023-05-13T04:23:45.556Z,15.21
2023-05-13T04:28:20.019Z,15.12
2023-05-13T04:30:46.063Z,15.08
2023-05-13T04:33:12.235Z,15.05
2023-05-13T04:35:54.931Z,15.04
2023-05-13T04:38:21.053Z,15.01
2023-05-13T04:40:55.567Z,14.99
2023-05-13T04:43:33.438Z,14.97
2023-05-13T04:45:57.943Z,14.94
2023-05-13T04:48:14.980Z,14.89
2023-05-13T04:50:47.916Z,14.83
2023-05-13T04:53:09.188Z,14.80
2023-05-13T04:55:37.020Z,14.75
2023-05-13T04:58:14.552Z,14.71
2023-05-13T05:00:42.178Z,14.68
2023-05-13T05:03:16.717Z,14.65
2023-05-13T05:05:34.318Z,14.63
2023-05-13T05:07:55.253Z,14.60
2023-05-13T05:10:16.652Z,14.59
2023-05-13T05:12:42.869Z,14.59
2023-05-13T05:15:02.656Z,14.56
2023-05-13T05:17:22.788Z,14.53
2023-05-13T05:19:39.865Z,14.49
2023-05-13T05:22:01.374Z,14.47
2023-05-13T05:24:28.189Z,14.44
2023-05-13T05:26:46.216Z,14.41
2023-05-13T05:29:19.570Z,14.39
2023-05-13T05:31:40.218Z,14.38
2023-05-13T05:34:02.217Z,14.36
2023-05-13T05:36:19.370Z,14.35
2023-05-13T05:38:49.038Z,14.32
2023-05-13T05:41:23.271Z,14.30
2023-05-13T05:43:41.627Z,14.29
2023-05-13T05:45:58.807Z,14.30
2023-05-13T05:48:21.236Z,14.31
2023-05-13T05:50:41.389Z,14.30
2023-05-13T05:53:10.167Z,14.29
2023-05-13T05:55:47.431Z,14.25
2023-05-13T05:58:06.872Z,14.23
2023-05-13T06:00:26.931Z,14.21
2023-05-13T06:03:00.535Z,14.20
2023-05-13T06:05:21.471Z,14.18
2023-05-13T06:07:46.390Z,14.16
2023-05-13T06:10:09.755Z,14.13
2023-05-13T06:12:32.384Z,14.10
2023-05-13T06:15:36.866Z,14.07
2023-05-13T06:18:23.823Z,14.02
2023-05-13T06:20:45.891Z,13.99
2023-05-13T06:23:12.034Z,13.99
2023-05-13T06:25:45.977Z,13.97
2023-05-13T06:28:09.604Z,13.94
2023-05-13T06:30:42.867Z,13.92
2023-05-13T06:33:09.383Z,13.90
2023-05-13T06:35:44.126Z,13.88
2023-05-13T06:38:18.831Z,13.87
2023-05-13T06:40:47.073Z,13.85
2023-05-13T06:43:06.159Z,13.84
2023-05-13T06:45:39.617Z,13.81
2023-05-13T06:48:09.989Z,13.77
2023-05-13T06:50:36.376Z,13.75
2023-05-13T06:53:03.598Z,13.74
2023-05-13T06:55:30.645Z,13.72
2023-05-13T06:58:04.467Z,13.72
2023-05-13T07:00:33.107Z,13.71
2023-05-13T07:03:05.653Z,13.68
2023-05-13T07:08:26.142Z,13.62
2023-05-13T07:10:52.733Z,13.60
2023-05-13T07:13:27.406Z,13.56
2023-05-13T07:16:02.431Z,13.55
2023-05-13T07:18:36.273Z,13.54
2023-05-13T07:21:02.641Z,13.55
2023-05-13T07:23:36.916Z,13.53
2023-05-13T07:26:11.615Z,13.50
2023-05-13T07:28:44.679Z,13.49
2023-05-13T07:31:19.884Z,13.49
2023-05-13T07:33:54.022Z,13.49
2023-05-13T07:36:27.286Z,13.50
2023-05-13T07:38:49.558Z,13.49
2023-05-13T07:41:24.673Z,13.48
2023-05-13T07:43:59.635Z,13.47
2023-05-13T07:46:33.214Z,13.47
2023-05-13T07:49:09.729Z,13.47
2023-05-13T07:51:37.335Z,13.48
2023-05-13T07:54:10.818Z,13.47
2023-05-13T07:56:45.216Z,13.46
2023-05-13T07:59:19.140Z,13.47
2023-05-13T08:01:52.490Z,13.47
2023-05-13T08:04:27.886Z,13.48
2023-05-13T08:07:02.087Z,13.48
2023-05-13T08:09:30.385Z,13.48
2023-05-13T08:12:03.833Z,13.48
2023-05-13T08:14:29.576Z,13.47
2023-05-13T08:17:02.651Z,13.45
2023-05-13T08:19:36.053Z,13.39
2023-05-13T08:22:16.058Z,13.34
2023-05-13T08:24:44.190Z,13.31
2023-05-13T08:27:18.220Z,13.29
2023-05-13T08:29:42.952Z,13.29
2023-05-13T08:32:04.765Z,13.30
2023-05-13T08:34:38.067Z,13.27
2023-05-13T08:37:12.460Z,13.27
2023-05-13T08:39:45.791Z,13.26
2023-05-13T08:42:20.368Z,13.29
2023-05-13T08:44:55.567Z,13.31
2023-05-13T08:47:36.908Z,13.32
2023-05-13T08:50:14.059Z,13.31
2023-05-13T08:52:47.730Z,13.30
2023-05-13T08:55:21.338Z,13.30
2023-05-13T08:57:54.722Z,13.29
2023-05-13T09:00:29.644Z,13.27
2023-05-13T09:03:02.957Z,13.25
2023-05-13T09:08:14.047Z,13.24
2023-05-13T09:10:48.488Z,13.23
2023-05-13T09:13:14.565Z,13.20
2023-05-13T09:15:49.075Z,13.17
2023-05-13T09:18:18.025Z,13.14
2023-05-13T09:20:52.071Z,13.13
2023-05-13T09:23:26.660Z,13.12
2023-05-13T09:26:01.179Z,13.12
2023-05-13T09:28:24.694Z,13.11
2023-05-13T09:31:00.574Z,13.10
2023-05-13T09:33:36.362Z,13.09
2023-05-13T09:36:19.588Z,13.04
2023-05-13T09:38:42.972Z,13.04
2023-05-13T09:41:17.183Z,13.05
2023-05-13T09:43:45.859Z,13.08
2023-05-13T09:46:21.212Z,13.11
2023-05-13T09:51:19.660Z,13.19
2023-05-13T09:53:53.977Z,13.21
2023-05-13T09:56:28.823Z,13.22
2023-05-13T09:59:03.950Z,13.24
2023-05-13T10:01:32.743Z,13.25
2023-05-13T10:03:57.795Z,13.23
2023-05-13T10:06:26.321Z,13.23
2023-05-13T10:08:54.089Z,13.23
2023-05-13T10:11:30.666Z,13.22
2023-05-13T10:14:06.853Z,13.24
2023-05-13T10:16:40.672Z,13.26
2023-05-13T10:19:15.490Z,13.30
2023-05-13T10:21:49.191Z,13.32
2023-05-13T10:24:23.170Z,13.34
2023-05-13T10:26:59.560Z,13.35
2023-05-13T10:29:35.172Z,13.34
2023-05-13T10:32:09.756Z,13.34
2023-05-13T10:34:46.264Z,13.34
2023-05-13T10:37:42.524Z,13.31
2023-05-13T10:41:09.221Z,13.24
2023-05-13T10:43:42.756Z,13.19
2023-05-13T10:46:22.634Z,13.13
2023-05-13T10:49:01.021Z,13.05
2023-05-13T10:51:29.952Z,12.98
2023-05-13T10:53:57.550Z,12.91
2023-05-13T10:56:15.545Z,12.87
2023-05-13T10:58:41.759Z,12.83
2023-05-13T11:01:20.976Z,12.77
2023-05-13T11:04:01.793Z,12.68
2023-05-13T11:06:34.205Z,12.58
2023-05-13T11:09:09.643Z,12.50
2023-05-13T11:11:43.055Z,12.45
2023-05-13T11:14:23.490Z,12.41
2023-05-13T11:17:11.189Z,12.34
2023-05-13T11:19:49.372Z,12.27
2023-05-13T11:22:19.085Z,12.21
2023-05-13T11:24:48.321Z,12.13
2023-05-13T11:27:23.723Z,12.05
2023-05-13T11:29:56.164Z,11.96
2023-05-13T11:32:58.529Z,11.92
2023-05-13T11:35:33.600Z,11.87
2023-05-13T11:38:08.658Z,11.85
2023-05-13T11:40:31.888Z,11.81
2023-05-13T11:42:54.520Z,11.75
2023-05-13T11:45:16.928Z,11.67
2023-05-13T11:47:50.461Z,11.60
2023-05-13T11:50:28.758Z,11.58
2023-05-13T11:53:03.447Z,11.58
2023-05-13T11:55:38.203Z,11.55
2023-05-13T11:58:16.601Z,11.52
2023-05-13T12:00:46.356Z,11.49
2023-05-13T12:03:20.443Z,11.45
2023-05-13T12:06:03.442Z,11.43
2023-05-13T12:08:37.327Z,11.40
2023-05-13T12:11:14.137Z,11.36
2023-05-13T12:13:47.600Z,11.32
2023-05-13T12:16:20.776Z,11.29
2023-05-13T12:19:07.456Z,11.24
2023-05-13T12:21:41.392Z,11.18
2023-05-13T12:24:19.358Z,11.15
2023-05-13T12:26:53.588Z,11.11
2023-05-13T12:29:19.077Z,11.08
2023-05-13T12:31:36.199Z,11.04
2023-05-13T12:34:10.061Z,10.97
2023-05-13T12:36:43.504Z,10.93
2023-05-13T12:39:11.917Z,10.91
2023-05-13T12:41:53.989Z,10.86
2023-05-13T12:44:22.182Z,10.83
2023-05-13T12:47:00.493Z,10.80
2023-05-13T12:49:26.230Z,10.77
2023-05-13T12:52:00.746Z,10.77
2023-05-13T12:54:27.787Z,10.79
2023-05-13T12:56:51.204Z,10.81
2023-05-13T12:59:17.957Z,10.84
2023-05-13T13:01:41.155Z,10.83
2023-05-13T13:04:09.077Z,10.83
2023-05-13T13:06:36.113Z,10.83
2023-05-13T13:09:10.221Z,10.85
2023-05-13T13:11:45.850Z,10.86
2023-05-13T13:14:10.178Z,10.87
2023-05-13T13:16:43.382Z,10.88
2023-05-13T13:19:11.124Z,10.90
2023-05-13T13:21:47.630Z,10.90
2023-05-13T13:24:15.100Z,10.90
2023-05-13T13:26:49.949Z,10.90
2023-05-13T13:29:23.162Z,10.88
2023-05-13T13:32:00.784Z,10.88
2023-05-13T13:34:35.288Z,10.88
2023-05-13T13:37:09.922Z,10.88
2023-05-13T13:39:44.541Z,10.88
2023-05-13T13:42:19.324Z,10.91
2023-05-13T13:44:54.404Z,10.96
2023-05-13T13:47:29.301Z,11.03
2023-05-13T13:50:03.851Z,11.11
2023-05-13T13:52:31.425Z,11.20
2023-05-13T13:55:06.235Z,11.25
2023-05-13T13:57:35.907Z,11.31
2023-05-13T14:00:21.527Z,11.37
2023-05-13T14:02:57.855Z,11.43
2023-05-13T14:05:31.809Z,11.49
2023-05-13T14:07:54.981Z,11.53
2023-05-13T14:10:28.809Z,11.56
2023-05-13T14:12:51.114Z,11.61
2023-05-13T14:15:25.485Z,11.71
2023-05-13T14:17:59.605Z,11.86
2023-05-13T14:20:30.183Z,12.03
2023-05-13T14:22:56.405Z,12.20
2023-05-13T14:25:30.664Z,12.40
2023-05-13T14:28:04.945Z,12.59
2023-05-13T14:30:28.722Z,12.77
2023-05-13T14:32:56.499Z,12.97
2023-05-13T14:35:30.428Z,13.17
2023-05-13T14:37:59.564Z,13.37
2023-05-13T14:43:22.952Z,13.79
2023-05-13T14:45:48.509Z,13.95
2023-05-13T14:48:15.617Z,14.10
2023-05-13T14:50:42.137Z,14.28
2023-05-13T14:53:15.739Z,14.46
2023-05-13T14:55:51.245Z,14.64
2023-05-13T14:58:46.226Z,14.84
2023-05-13T15:01:13.874Z,15.02
2023-05-13T15:03:35.927Z,15.21
2023-05-13T15:06:11.806Z,15.40
2023-05-13T15:08:44.326Z,15.53
2023-05-13T15:11:12.310Z,15.63
2023-05-13T15:13:40.376Z,15.76
2023-05-13T15:16:15.171Z,15.91
2023-05-13T15:18:39.721Z,16.03
2023-05-13T15:21:14.127Z,16.15
2023-05-13T15:23:37.927Z,16.26
2023-05-13T15:26:07.768Z,16.34
2023-05-13T15:28:43.451Z,16.44
2023-05-13T15:31:18.535Z,16.52
2023-05-13T15:33:52.830Z,16.62
2023-05-13T15:36:25.582Z,16.72
2023-05-13T15:38:48.588Z,16.85
2023-05-13T15:41:17.070Z,17.01
2023-05-13T15:43:43.262Z,17.17
2023-05-13T15:46:19.338Z,17.30
2023-05-13T15:48:52.121Z,17.42
2023-05-13T15:51:19.352Z,17.57
2023-05-13T15:53:53.941Z,17.73
2023-05-13T15:56:21.545Z,17.86
2023-05-13T15:58:56.913Z,18.03
2023-05-13T16:01:19.835Z,18.17
2023-05-13T16:03:54.478Z,18.33
2023-05-13T16:06:21.632Z,18.42
2023-05-13T16:08:56.756Z,18.59
2023-05-13T16:11:25.878Z,18.76
2023-05-13T16:14:00.519Z,18.95
2023-05-13T16:16:29.598Z,19.09
2023-05-13T16:18:58.296Z,19.27
2023-05-13T16:21:26.116Z,19.41
2023-05-13T16:24:02.505Z,19.55
2023-05-13T16:26:32.300Z,19.66
2023-05-13T16:28:55.221Z,19.73
2023-05-13T16:31:26.588Z,19.64
2023-05-13T16:33:54.741Z,19.45
2023-05-13T16:36:28.929Z,19.43
2023-05-13T16:38:56.304Z,19.45
2023-05-13T16:41:30.749Z,19.44
2023-05-13T16:43:58.922Z,19.41
2023-05-13T16:46:36.599Z,19.39
2023-05-13T16:49:11.565Z,19.39
2023-05-13T16:51:45.281Z,19.46
2023-05-13T16:54:22.368Z,19.57
2023-05-13T16:56:49.027Z,19.71
2023-05-13T16:59:28.122Z,19.90
2023-05-13T17:01:53.210Z,20.20
2023-05-13T17:04:27.755Z,20.60
2023-05-13T17:07:03.192Z,21.15
2023-05-13T17:09:37.653Z,21.91
2023-05-13T17:12:11.710Z,22.52
2023-05-13T17:14:46.639Z,23.11
2023-05-13T17:17:20.335Z,23.60
2023-05-13T17:19:53.818Z,24.05
2023-05-13T17:22:16.831Z,24.40
2023-05-13T17:24:50.207Z,24.79
2023-05-13T17:27:27.615Z,25.16
2023-05-13T17:30:02.428Z,25.44
2023-05-13T17:32:29.617Z,25.65
2023-05-13T17:34:56.916Z,25.91
2023-05-13T17:37:30.928Z,26.14
2023-05-13T17:40:05.388Z,26.35
2023-05-13T17:42:38.229Z,26.54
2023-05-13T17:45:04.753Z,26.72
2023-05-13T17:47:38.780Z,26.90
2023-05-13T17:50:15.441Z,27.10
2023-05-13T17:52:37.699Z,27.27
2023-05-13T17:55:13.610Z,27.36
2023-05-13T17:57:47.252Z,27.43
2023-05-13T18:00:22.016Z,27.59
2023-05-13T18:02:55.614Z,27.73
2023-05-13T18:05:28.704Z,27.86
2023-05-13T18:08:03.249Z,28.00
2023-05-13T18:10:36.632Z,28.10
2023-05-13T18:13:10.887Z,28.23
2023-05-13T18:15:45.287Z,28.37
2023-05-13T18:18:18.704Z,28.48
2023-05-13T18:20:52.216Z,28.56
2023-05-13T18:23:26.060Z,28.64
2023-05-13T18:25:55.441Z,28.70
2023-05-13T18:28:23.803Z,28.75
2023-05-13T18:30:58.959Z,28.80
2023-05-13T18:33:33.827Z,28.88
2023-05-13T18:35:56.800Z,28.97
2023-05-13T18:38:30.799Z,29.05
2023-05-13T18:41:05.819Z,29.15
2023-05-13T18:43:40.698Z,29.26
2023-05-13T18:46:17.899Z,29.33
2023-05-13T18:48:52.251Z,29.44
2023-05-13T18:51:26.799Z,29.50
2023-05-13T18:54:00.947Z,29.56
2023-05-13T18:56:34.429Z,29.66
2023-05-13T18:58:56.448Z,29.76
2023-05-13T19:01:29.697Z,29.85
2023-05-13T19:04:03.455Z,29.97
2023-05-13T19:06:39.043Z,30.08
2023-05-13T19:09:13.548Z,30.18
2023-05-13T19:11:48.033Z,30.24
2023-05-13T19:14:16.140Z,30.25
2023-05-13T19:16:50.386Z,30.26
2023-05-13T19:19:12.791Z,30.24
2023-05-13T19:21:46.026Z,30.22
2023-05-13T19:24:21.466Z,30.22
2023-05-13T19:26:56.409Z,30.23
2023-05-13T19:29:29.554Z,30.32
2023-05-13T19:31:56.209Z,30.43
2023-05-13T19:34:19.799Z,30.51
2023-05-13T19:36:42.341Z,30.53
2023-05-13T19:39:16.068Z,30.59
2023-05-13T19:41:39.586Z,30.69
2023-05-13T19:44:12.928Z,30.79
2023-05-13T19:46:47.835Z,30.87
2023-05-13T19:49:16.369Z,30.94
2023-05-13T19:51:39.218Z,31.04
2023-05-13T19:54:14.798Z,31.14
2023-05-13T19:56:43.646Z,31.23
2023-05-13T19:59:18.501Z,31.34
2023-05-13T20:01:53.114Z,31.41
2023-05-13T20:04:26.126Z,31.41
2023-05-13T20:07:01.198Z,31.44
2023-05-13T20:09:35.318Z,31.49
2023-05-13T20:12:02.534Z,31.52
2023-05-13T20:14:44.498Z,31.56
2023-05-13T20:17:10.331Z,31.64
2023-05-13T20:19:45.353Z,31.78
2023-05-13T20:22:19.447Z,31.85
2023-05-13T20:24:55.577Z,31.91
2023-05-13T20:27:31.169Z,31.95
2023-05-13T20:29:56.270Z,32.02
2023-05-13T20:32:32.458Z,32.12
2023-05-13T20:35:07.578Z,32.21
2023-05-13T20:37:31.482Z,32.26
2023-05-13T20:40:07.858Z,32.30
2023-05-13T20:42:41.623Z,32.38
2023-05-13T20:45:17.602Z,32.39
2023-05-13T20:47:45.372Z,32.40
2023-05-13T20:50:19.951Z,32.36
2023-05-13T20:52:53.154Z,32.35
2023-05-13T20:55:26.866Z,32.37
2023-05-13T20:58:02.337Z,32.49
2023-05-13T21:00:36.305Z,32.62
2023-05-13T21:02:59.670Z,32.72
2023-05-13T21:05:34.652Z,32.77
2023-05-13T21:08:08.763Z,32.81
2023-05-13T21:10:42.322Z,32.86
2023-05-13T21:13:18.404Z,32.94
2023-05-13T21:15:46.904Z,33.03
2023-05-13T21:18:13.564Z,33.09
2023-05-13T21:20:47.748Z,33.11
2023-05-13T21:23:21.189Z,33.08
2023-05-13T21:25:47.887Z,33.08
2023-05-13T21:28:21.735Z,33.10
2023-05-13T21:30:55.263Z,33.12
2023-05-13T21:33:29.439Z,33.17
2023-05-13T21:36:03.007Z,33.33
2023-05-13T21:38:35.798Z,33.53
2023-05-13T21:41:11.357Z,33.64
2023-05-13T21:43:46.048Z,33.78
2023-05-13T21:46:21.743Z,33.87
2023-05-13T21:48:55.831Z,33.92
2023-05-13T21:51:34.201Z,33.98
2023-05-13T21:53:56.935Z,33.99
2023-05-13T21:56:30.449Z,34.01
2023-05-13T21:59:04.400Z,34.01
2023-05-13T22:01:37.859Z,34.04
2023-05-13T22:04:05.372Z,34.18
2023-05-13T22:06:39.976Z,34.15
2023-05-13T22:09:03.462Z,34.11
2023-05-13T22:11:36.655Z,34.11
2023-05-13T22:14:11.949Z,34.14
2023-05-13T22:16:34.855Z,34.17
2023-05-13T22:18:59.910Z,34.27
2023-05-13T22:21:34.591Z,34.37
2023-05-13T22:24:09.414Z,34.37
2023-05-13T22:26:45.011Z,34.28
2023-05-13T22:29:12.466Z,34.27
2023-05-13T22:31:41.995Z,34.35
2023-05-13T22:34:16.672Z,34.47
2023-05-13T22:36:51.121Z,34.49
2023-05-13T22:39:23.380Z,34.05
2023-05-13T22:41:44.901Z,33.51
2023-05-13T22:44:18.627Z,33.12
2023-05-13T22:46:55.212Z,33.03
2023-05-13T22:49:29.501Z,33.24
2023-05-13T22:51:57.470Z,33.52
2023-05-13T22:54:31.419Z,33.86
2023-05-13T22:57:05.344Z,33.90
2023-05-13T22:59:39.241Z,33.29
2023-05-13T23:02:15.000Z,32.77
2023-05-13T23:04:48.664Z,32.84
2023-05-13T23:07:17.181Z,33.16
2023-05-13T23:09:43.900Z,33.34
2023-05-13T23:12:17.625Z,33.59
2023-05-13T23:14:48.636Z,33.73
2023-05-13T23:17:24.667Z,33.39
2023-05-13T23:19:49.468Z,32.50
2023-05-13T23:22:12.251Z,31.96
2023-05-13T23:24:46.956Z,31.55
2023-05-13T23:27:15.858Z,31.21
2023-05-13T23:29:36.976Z,31.16
2023-05-13T23:32:12.899Z,31.19
2023-05-13T23:34:39.378Z,31.10
2023-05-13T23:37:04.187Z,31.15
2023-05-13T23:39:23.734Z,31.49
2023-05-13T23:41:57.682Z,31.71
2023-05-13T23:44:22.194Z,31.53
2023-05-13T23:46:50.620Z,31.43
2023-05-13T23:49:23.895Z,31.48
2023-05-13T23:51:58.129Z,31.63
2023-05-13T23:54:32.229Z,31.76
2023-05-13T23:57:01.966Z,31.99
2023-05-13T23:59:35.974Z,32.09
